createdAt,value
2023-02-24T00:00:24.359Z,6.9
2023-02-24T00:01:30.736Z,6.9
2023-02-24T00:02:37.078Z,6.9
2023-02-24T00:03:42.308Z,6.9
2023-02-24T00:04:48.597Z,6.9
2023-02-24T00:05:54.740Z,6.9
2023-02-24T00:07:01.221Z,6.9
2023-02-24T00:08:07.294Z,6.9
2023-02-24T00:09:13.554Z,6.9
2023-02-24T00:10:19.882Z,6.9
2023-02-24T00:11:25.243Z,6.9
2023-02-24T00:12:30.579Z,6.9
2023-02-24T00:13:36.680Z,6.9
2023-02-24T00:14:43.061Z,6.9
2023-02-24T00:15:49.386Z,6.9
2023-02-24T00:16:55.547Z,6.9
2023-02-24T00:18:01.837Z,6.9
2023-02-24T00:19:08.094Z,6.9
2023-02-24T00:20:14.385Z,6.9
2023-02-24T00:21:20.641Z,6.9
2023-02-24T00:22:27.001Z,6.9
2023-02-24T00:23:33.118Z,6.9
2023-02-24T00:24:39.556Z,6.9
2023-02-24T00:25:45.797Z,6.9
2023-02-24T00:26:50.995Z,6.9
2023-02-24T00:27:57.402Z,6.9
2023-02-24T00:29:03.644Z,6.9
2023-02-24T00:30:09.802Z,6.9
2023-02-24T00:31:16.187Z,6.9
2023-02-24T00:32:22.328Z,6.9
2023-02-24T00:33:28.719Z,6.9
2023-02-24T00:34:34.030Z,6.9
2023-02-24T00:35:39.185Z,6.9
2023-02-24T00:36:44.640Z,6.9
2023-02-24T00:37:49.778Z,6.9
2023-02-24T00:38:55.170Z,6.9
2023-02-24T00:40:00.354Z,6.9
2023-02-24T00:41:06.694Z,6.8
2023-02-24T00:42:12.906Z,6.8
2023-02-24T00:43:19.306Z,6.8
2023-02-24T00:44:25.627Z,6.8
2023-02-24T00:45:31.796Z,6.8
2023-02-24T00:46:38.000Z,6.8
2023-02-24T00:47:44.280Z,6.8
2023-02-24T00:48:50.551Z,6.8
2023-02-24T00:49:56.810Z,6.8
2023-02-24T00:51:03.110Z,6.8
2023-02-24T00:52:09.356Z,6.8
2023-02-24T00:53:15.674Z,6.8
2023-02-24T00:54:20.914Z,6.8
2023-02-24T00:55:27.257Z,6.8
2023-02-24T00:56:33.464Z,6.8
2023-02-24T00:57:39.743Z,6.8
2023-02-24T00:58:46.006Z,6.8
2023-02-24T00:59:52.324Z,6.8
2023-02-24T01:00:58.566Z,6.8
2023-02-24T01:02:03.854Z,6.8
2023-02-24T01:03:09.228Z,6.8
2023-02-24T01:04:14.549Z,6.8
2023-02-24T01:05:19.844Z,6.8
2023-02-24T01:06:26.001Z,6.8
2023-02-24T01:07:32.397Z,6.8
2023-02-24T01:08:38.636Z,6.8
2023-02-24T01:09:44.810Z,6.8
2023-02-24T01:10:51.142Z,6.8
2023-02-24T01:11:57.358Z,6.8
2023-02-24T01:13:03.653Z,6.8
2023-02-24T01:14:09.900Z,6.8
2023-02-24T01:15:16.199Z,6.8
2023-02-24T01:16:22.568Z,6.8
2023-02-24T01:17:28.822Z,6.8
2023-02-24T01:18:35.114Z,6.8
2023-02-24T01:19:40.283Z,6.8
2023-02-24T01:20:46.590Z,6.8
2023-02-24T01:21:52.817Z,6.8
2023-02-24T01:22:59.328Z,6.8
2023-02-24T01:24:05.364Z,6.8
2023-02-24T01:25:11.717Z,6.8
2023-02-24T01:26:17.900Z,6.8
2023-02-24T01:27:23.353Z,6.8
2023-02-24T01:28:29.585Z,6.8
2023-02-24T01:29:34.846Z,6.8
2023-02-24T01:30:41.111Z,6.8
2023-02-24T01:31:46.469Z,6.8
2023-02-24T01:32:51.712Z,6.8
2023-02-24T01:33:57.000Z,6.8
2023-02-24T01:35:03.328Z,6.8
2023-02-24T01:36:09.457Z,6.8
2023-02-24T01:37:15.792Z,6.8
2023-02-24T01:38:22.034Z,6.7
2023-02-24T01:39:28.306Z,6.7
2023-02-24T01:40:34.679Z,6.7
2023-02-24T01:41:40.820Z,6.7
2023-02-24T01:42:47.151Z,6.7
2023-02-24T01:43:53.423Z,6.7
2023-02-24T01:44:59.794Z,6.7
2023-02-24T01:46:06.098Z,6.7
2023-02-24T01:47:12.351Z,6.7
2023-02-24T01:48:17.602Z,6.7
2023-02-24T01:49:23.741Z,6.7
2023-02-24T01:50:30.015Z,6.7
2023-02-24T01:51:36.329Z,6.7
2023-02-24T01:52:42.634Z,6.7
2023-02-24T01:53:48.893Z,6.7
2023-02-24T01:54:54.250Z,6.7
2023-02-24T01:55:59.515Z,6.7
2023-02-24T01:57:04.861Z,6.7
2023-02-24T01:58:10.032Z,6.7
2023-02-24T01:59:16.343Z,6.7
2023-02-24T02:00:22.613Z,6.7
2023-02-24T02:01:28.972Z,6.7
2023-02-24T02:02:35.096Z,6.7
2023-02-24T02:03:41.553Z,6.7
2023-02-24T02:04:47.654Z,6.7
2023-02-24T02:05:53.950Z,6.7
2023-02-24T02:07:00.189Z,6.7
2023-02-24T02:08:06.455Z,6.7
2023-02-24T02:09:12.731Z,6.7
2023-02-24T02:10:19.018Z,6.7
2023-02-24T02:11:25.342Z,6.7
2023-02-24T02:12:30.620Z,6.7
2023-02-24T02:13:36.866Z,6.7
2023-02-24T02:14:43.245Z,6.7
2023-02-24T02:15:49.374Z,6.7
2023-02-24T02:16:55.731Z,6.7
2023-02-24T02:18:02.058Z,6.7
2023-02-24T02:19:08.228Z,6.7
2023-02-24T02:20:13.627Z,6.7
2023-02-24T02:21:18.789Z,6.7
2023-02-24T02:22:24.083Z,6.7
2023-02-24T02:23:29.416Z,6.7
2023-02-24T02:24:35.692Z,6.7
2023-02-24T02:25:41.924Z,6.7
2023-02-24T02:26:48.175Z,6.7
2023-02-24T02:27:54.465Z,6.7
2023-02-24T02:29:00.729Z,6.7
2023-02-24T02:30:07.000Z,6.7
2023-02-24T02:31:13.320Z,6.6
2023-02-24T02:32:19.604Z,6.6
2023-02-24T02:33:25.813Z,6.6
2023-02-24T02:34:32.092Z,6.6
2023-02-24T02:35:38.368Z,6.6
2023-02-24T02:36:44.660Z,6.6
2023-02-24T02:37:49.940Z,6.6
2023-02-24T02:38:56.213Z,6.6
2023-02-24T02:40:02.567Z,6.5
2023-02-24T02:41:08.733Z,6.5
2023-02-24T02:42:14.996Z,6.5
2023-02-24T02:43:21.322Z,6.5
2023-02-24T02:44:27.597Z,6.5
2023-02-24T02:45:32.852Z,6.5
2023-02-24T02:46:38.145Z,6.5
2023-02-24T02:47:43.484Z,6.5
2023-02-24T02:48:48.726Z,6.5
2023-02-24T02:49:55.095Z,6.5
2023-02-24T02:51:01.315Z,6.5
2023-02-24T02:52:07.564Z,6.5
2023-02-24T02:53:13.807Z,6.5
2023-02-24T02:54:20.082Z,6.5
2023-02-24T02:55:26.372Z,6.5
2023-02-24T02:56:32.647Z,6.4
2023-02-24T02:57:38.932Z,6.4
2023-02-24T02:58:45.170Z,6.4
2023-02-24T02:59:51.429Z,6.4
2023-02-24T03:00:57.713Z,6.4
2023-02-24T03:02:04.074Z,6.4
2023-02-24T03:03:09.410Z,6.3
2023-02-24T03:04:15.587Z,6.4
2023-02-24T03:05:21.809Z,6.4
2023-02-24T03:06:28.092Z,6.4
2023-02-24T03:07:34.400Z,6.4
2023-02-24T03:08:40.692Z,6.4
2023-02-24T03:09:46.924Z,6.4
2023-02-24T03:10:53.178Z,6.4
2023-02-24T03:11:58.476Z,6.4
2023-02-24T03:13:03.760Z,6.4
2023-02-24T03:14:10.040Z,6.4
2023-02-24T03:15:15.336Z,6.4
2023-02-24T03:16:20.657Z,6.4
2023-02-24T03:17:26.943Z,6.4
2023-02-24T03:18:33.308Z,6.4
2023-02-24T03:19:39.441Z,6.4
2023-02-24T03:20:45.759Z,6.4
2023-02-24T03:21:51.984Z,6.4
2023-02-24T03:22:58.255Z,6.4
2023-02-24T03:24:04.528Z,6.4
2023-02-24T03:25:10.876Z,6.4
2023-02-24T03:26:17.061Z,6.4
2023-02-24T03:27:23.340Z,6.3
2023-02-24T03:28:29.607Z,6.3
2023-02-24T03:29:35.996Z,6.3
2023-02-24T03:30:41.173Z,6.3
2023-02-24T03:31:47.450Z,6.3
2023-02-24T03:32:53.717Z,6.3
2023-02-24T03:33:59.988Z,6.3
2023-02-24T03:35:06.308Z,6.3
2023-02-24T03:36:12.546Z,6.3
2023-02-24T03:37:18.838Z,6.3
2023-02-24T03:38:24.160Z,6.3
2023-02-24T03:39:29.415Z,6.3
2023-02-24T03:40:34.720Z,6.2
2023-02-24T03:41:39.992Z,6.2
2023-02-24T03:42:46.285Z,6.2
2023-02-24T03:43:52.525Z,6.2
2023-02-24T03:44:58.825Z,6.2
2023-02-24T03:46:05.070Z,6.2
2023-02-24T03:47:11.342Z,6.2
2023-02-24T03:48:17.686Z,6.2
2023-02-24T03:49:23.885Z,6.1
2023-02-24T03:50:30.162Z,6.1
2023-02-24T03:51:36.437Z,6
2023-02-24T03:52:42.763Z,6
2023-02-24T03:53:49.015Z,6
2023-02-24T03:54:55.344Z,6
2023-02-24T03:56:00.659Z,6.1
2023-02-24T03:57:06.818Z,6
2023-02-24T03:58:13.084Z,6.1
2023-02-24T03:59:19.377Z,6
2023-02-24T04:00:25.646Z,6
2023-02-24T04:01:31.987Z,6
2023-02-24T04:02:38.161Z,6.1
2023-02-24T04:03:43.465Z,6
2023-02-24T04:04:48.824Z,6
2023-02-24T04:05:55.034Z,5.9
2023-02-24T04:07:01.350Z,5.9
2023-02-24T04:08:07.597Z,5.9
2023-02-24T04:09:13.852Z,5.9
2023-02-24T04:10:20.118Z,5.8
2023-02-24T04:11:26.399Z,5.8
2023-02-24T04:12:32.709Z,5.8
2023-02-24T04:13:38.954Z,5.8
2023-02-24T04:14:45.209Z,5.7
2023-02-24T04:15:51.483Z,5.6
2023-02-24T04:16:57.748Z,5.6
2023-02-24T04:18:04.136Z,5.6
2023-02-24T04:19:09.323Z,5.6
2023-02-24T04:20:15.579Z,5.6
2023-02-24T04:21:21.937Z,5.6
2023-02-24T04:22:28.250Z,5.6
2023-02-24T04:23:34.509Z,5.6
2023-02-24T04:24:40.674Z,5.6
2023-02-24T04:25:46.952Z,5.6
2023-02-24T04:26:52.322Z,5.6
2023-02-24T04:27:57.612Z,5.6
2023-02-24T04:29:02.828Z,5.7
2023-02-24T04:30:08.108Z,5.6
2023-02-24T04:31:14.483Z,5.5
2023-02-24T04:32:20.719Z,5.5
2023-02-24T04:33:26.928Z,5.5
2023-02-24T04:34:33.292Z,5.5
2023-02-24T04:35:39.469Z,5.4
2023-02-24T04:36:45.755Z,5.4
2023-02-24T04:37:52.090Z,5.5
2023-02-24T04:38:58.349Z,5.5
2023-02-24T04:40:04.561Z,5.5
2023-02-24T04:41:10.840Z,5.5
2023-02-24T04:42:17.132Z,5.5
2023-02-24T04:43:23.377Z,5.5
2023-02-24T04:44:28.669Z,5.5
2023-02-24T04:45:34.982Z,5.5
2023-02-24T04:46:41.241Z,5.5
2023-02-24T04:47:47.489Z,5.5
2023-02-24T04:48:53.756Z,5.5
2023-02-24T04:50:00.076Z,5.5
2023-02-24T04:51:06.313Z,5.4
2023-02-24T04:52:11.601Z,5.4
2023-02-24T04:53:16.946Z,5.4
2023-02-24T04:54:22.210Z,5.4
2023-02-24T04:55:27.472Z,5.4
2023-02-24T04:56:33.748Z,5.3
2023-02-24T04:57:40.018Z,5.3
2023-02-24T04:58:46.390Z,5.3
2023-02-24T04:59:52.605Z,5.3
2023-02-24T05:00:58.886Z,5.3
2023-02-24T05:02:05.114Z,5.3
2023-02-24T05:03:11.396Z,5.3
2023-02-24T05:04:17.651Z,5.3
2023-02-24T05:05:23.926Z,5.3
2023-02-24T05:06:30.190Z,5.3
2023-02-24T05:07:36.471Z,5.3
2023-02-24T05:08:42.760Z,5.3
2023-02-24T05:09:48.060Z,5.3
2023-02-24T05:10:54.327Z,5.3
2023-02-24T05:12:00.624Z,5.3
2023-02-24T05:13:06.844Z,5.3
2023-02-24T05:14:13.110Z,5.3
2023-02-24T05:15:18.408Z,5.3
2023-02-24T05:16:24.686Z,5.3
2023-02-24T05:17:29.982Z,5.3
2023-02-24T05:18:35.324Z,5.3
2023-02-24T05:19:40.592Z,5.3
2023-02-24T05:20:45.866Z,5.3
2023-02-24T05:21:52.132Z,5.3
2023-02-24T05:22:58.406Z,5.3
2023-02-24T05:24:04.675Z,5.4
2023-02-24T05:25:10.964Z,5.4
2023-02-24T05:26:17.240Z,5.4
2023-02-24T05:27:23.500Z,5.4
2023-02-24T05:28:29.850Z,5.4
2023-02-24T05:29:36.041Z,5.4
2023-02-24T05:30:42.354Z,5.4
2023-02-24T05:31:48.581Z,5.4
2023-02-24T05:32:54.883Z,5.4
2023-02-24T05:34:01.119Z,5.2
2023-02-24T05:35:06.415Z,5.1
2023-02-24T05:36:12.758Z,5.1
2023-02-24T05:37:19.050Z,5
2023-02-24T05:38:25.358Z,5
2023-02-24T05:39:31.495Z,4.9
2023-02-24T05:40:37.781Z,4.8
2023-02-24T05:41:44.119Z,4.8
2023-02-24T05:42:49.359Z,4.7
2023-02-24T05:43:54.637Z,4.6
2023-02-24T05:44:59.947Z,4.5
2023-02-24T05:46:05.236Z,4.5
2023-02-24T05:47:11.522Z,4.5
2023-02-24T05:48:17.757Z,4.5
2023-02-24T05:49:24.088Z,4.5
2023-02-24T05:50:30.309Z,4.5
2023-02-24T05:51:36.573Z,4.5
2023-02-24T05:52:42.849Z,4.5
2023-02-24T05:53:49.147Z,4.5
2023-02-24T05:54:55.416Z,4.5
2023-02-24T05:56:01.694Z,4.6
2023-02-24T05:57:08.003Z,4.6
2023-02-24T05:58:14.205Z,4.6
2023-02-24T05:59:20.480Z,4.7
2023-02-24T06:00:25.764Z,4.7
2023-02-24T06:01:32.109Z,4.7
2023-02-24T06:02:38.392Z,4.8
2023-02-24T06:03:44.594Z,4.8
2023-02-24T06:04:50.847Z,4.8
2023-02-24T06:05:57.128Z,4.8
2023-02-24T06:07:03.455Z,4.8
2023-02-24T06:08:08.696Z,4.8
2023-02-24T06:09:14.079Z,4.8
2023-02-24T06:10:20.254Z,4.8
2023-02-24T06:11:25.587Z,4.8
2023-02-24T06:12:30.847Z,4.8
2023-02-24T06:13:37.122Z,4.8
2023-02-24T06:14:43.408Z,4.7
2023-02-24T06:15:49.669Z,4.6
2023-02-24T06:16:55.981Z,4.6
2023-02-24T06:18:02.307Z,4.6
2023-02-24T06:19:08.493Z,4.6
2023-02-24T06:20:14.751Z,4.6
2023-02-24T06:21:21.046Z,4.6
2023-02-24T06:22:27.342Z,4.6
2023-02-24T06:23:33.581Z,4.6
2023-02-24T06:24:39.878Z,4.7
2023-02-24T06:25:46.125Z,4.7
2023-02-24T06:26:51.406Z,4.6
2023-02-24T06:27:57.686Z,4.6
2023-02-24T06:29:03.956Z,4.6
2023-02-24T06:30:10.219Z,4.6
2023-02-24T06:31:16.520Z,4.5
2023-02-24T06:32:22.767Z,4.5
2023-02-24T06:33:29.071Z,4.5
2023-02-24T06:34:34.338Z,4.6
2023-02-24T06:35:39.641Z,4.6
2023-02-24T06:36:45.910Z,4.6
2023-02-24T06:37:52.167Z,4.6
2023-02-24T06:38:58.439Z,4.6
2023-02-24T06:40:04.735Z,4.6
2023-02-24T06:41:10.986Z,4.7
2023-02-24T06:43:23.611Z,4.7
2023-02-24T06:44:29.810Z,4.7
2023-02-24T06:45:36.099Z,4.6
2023-02-24T06:46:42.352Z,4.5
2023-02-24T06:47:48.626Z,4.5
2023-02-24T06:48:54.905Z,4.5
2023-02-24T06:50:00.184Z,4.6
2023-02-24T06:51:06.454Z,4.6
2023-02-24T06:52:12.822Z,4.6
2023-02-24T06:53:18.996Z,4.7
2023-02-24T06:54:25.277Z,4.7
2023-02-24T06:55:31.575Z,4.7
2023-02-24T06:56:37.821Z,4.7
2023-02-24T06:57:44.090Z,4.7
2023-02-24T06:58:49.407Z,4.7
2023-02-24T06:59:54.771Z,4.7
2023-02-24T07:01:00.994Z,4.7
2023-02-24T07:02:06.336Z,4.7
2023-02-24T07:03:12.520Z,4.6
2023-02-24T07:04:17.811Z,4.6
2023-02-24T07:05:24.074Z,4.6
2023-02-24T07:06:30.394Z,4.6
2023-02-24T07:07:36.622Z,4.5
2023-02-24T07:08:42.898Z,4.6
2023-02-24T07:09:49.206Z,4.6
2023-02-24T07:10:55.442Z,4.6
2023-02-24T07:12:01.777Z,4.6
2023-02-24T07:13:07.979Z,4.6
2023-02-24T07:14:14.243Z,4.6
2023-02-24T07:15:20.541Z,4.6
2023-02-24T07:16:26.804Z,4.6
2023-02-24T07:17:33.135Z,4.5
2023-02-24T07:18:38.410Z,4.5
2023-02-24T07:19:44.682Z,4.5
2023-02-24T07:20:50.896Z,4.5
2023-02-24T07:21:57.174Z,4.6
2023-02-24T07:23:03.466Z,4.6
2023-02-24T07:24:09.715Z,4.6
2023-02-24T07:25:15.984Z,4.7
2023-02-24T07:26:22.273Z,4.7
2023-02-24T07:27:28.602Z,4.7
2023-02-24T07:28:34.908Z,4.8
2023-02-24T07:29:41.132Z,4.8
2023-02-24T07:30:47.345Z,4.8
2023-02-24T07:31:53.656Z,4.9
2023-02-24T07:32:58.913Z,4.9
2023-02-24T07:34:05.205Z,4.9
2023-02-24T07:35:11.450Z,4.9
2023-02-24T07:36:17.725Z,4.9
2023-02-24T07:37:24.012Z,4.9
2023-02-24T07:38:30.325Z,4.9
2023-02-24T07:39:36.544Z,4.9
2023-02-24T07:40:42.806Z,4.9
2023-02-24T07:41:49.141Z,4.9
2023-02-24T07:42:55.356Z,4.9
2023-02-24T07:44:01.621Z,4.9
2023-02-24T07:45:07.906Z,4.9
2023-02-24T07:46:14.173Z,4.9
2023-02-24T07:47:20.443Z,5
2023-02-24T07:48:25.736Z,5
2023-02-24T07:49:32.034Z,5
2023-02-24T07:50:38.288Z,5
2023-02-24T07:51:44.541Z,5
2023-02-24T07:52:50.818Z,4.9
2023-02-24T07:53:57.084Z,4.8
2023-02-24T07:55:03.418Z,4.8
2023-02-24T07:56:09.626Z,4.8
2023-02-24T07:57:15.905Z,4.8
2023-02-24T07:58:22.179Z,4.9
2023-02-24T07:59:28.571Z,4.8
2023-02-24T08:00:34.720Z,4.8
2023-02-24T08:01:41.215Z,4.8
2023-02-24T08:02:46.369Z,4.8
2023-02-24T08:03:52.674Z,4.8
2023-02-24T08:04:58.988Z,4.9
2023-02-24T08:06:05.243Z,4.9
2023-02-24T08:07:11.505Z,4.9
2023-02-24T08:08:17.736Z,4.9
2023-02-24T08:09:24.051Z,4.9
2023-02-24T08:10:30.293Z,4.9
2023-02-24T08:11:36.515Z,4.9
2023-02-24T08:12:42.785Z,4.9
2023-02-24T08:13:49.003Z,4.9
2023-02-24T08:14:55.353Z,4.9
2023-02-24T08:16:01.628Z,4.9
2023-02-24T08:17:06.919Z,4.9
2023-02-24T08:18:13.161Z,4.9
2023-02-24T08:19:19.378Z,4.9
2023-02-24T08:20:25.680Z,4.9
2023-02-24T08:21:31.932Z,4.9
2023-02-24T08:22:38.249Z,4.9
2023-02-24T08:23:44.521Z,4.9
2023-02-24T08:24:50.753Z,4.9
2023-02-24T08:25:57.103Z,4.9
2023-02-24T08:27:03.392Z,4.9
2023-02-24T08:28:09.672Z,4.9
2023-02-24T08:29:15.916Z,4.9
2023-02-24T08:30:22.195Z,4.9
2023-02-24T08:31:27.542Z,5
2023-02-24T08:32:33.783Z,5
2023-02-24T08:33:39.936Z,5
2023-02-24T08:34:46.349Z,5.1
2023-02-24T08:35:52.565Z,5.2
2023-02-24T08:36:58.901Z,5.2
2023-02-24T08:38:05.019Z,5.2
2023-02-24T08:39:11.305Z,5.2
2023-02-24T08:40:17.581Z,5.3
2023-02-24T08:41:24.020Z,5.2
2023-02-24T08:42:30.222Z,5.2
2023-02-24T08:43:36.381Z,5.3
2023-02-24T08:44:42.653Z,5.3
2023-02-24T08:45:47.944Z,5.4
2023-02-24T08:46:54.222Z,5.4
2023-02-24T08:48:00.535Z,5.4
2023-02-24T08:49:06.841Z,5.4
2023-02-24T08:50:13.055Z,5.5
2023-02-24T08:51:19.333Z,5.5
2023-02-24T08:52:25.657Z,5.6
2023-02-24T08:53:31.843Z,5.7
2023-02-24T08:54:38.211Z,5.7
2023-02-24T08:55:44.479Z,5.8
2023-02-24T08:56:49.709Z,5.8
2023-02-24T08:57:56.002Z,5.8
2023-02-24T08:59:02.324Z,5.8
2023-02-24T09:00:08.513Z,5.9
2023-02-24T09:01:14.773Z,5.9
2023-02-24T09:02:21.197Z,5.9
2023-02-24T09:03:27.328Z,6
2023-02-24T09:04:33.649Z,6
2023-02-24T09:05:39.913Z,6
2023-02-24T09:06:46.203Z,6
2023-02-24T09:07:52.433Z,6
2023-02-24T09:08:58.681Z,6
2023-02-24T09:10:04.964Z,5.9
2023-02-24T09:11:10.246Z,5.9
2023-02-24T09:12:16.516Z,5.9
2023-02-24T09:13:22.811Z,5.9
2023-02-24T09:14:29.081Z,6
2023-02-24T09:15:35.349Z,5.9
2023-02-24T09:16:41.606Z,5.9
2023-02-24T09:17:47.948Z,6
2023-02-24T09:18:54.157Z,6
2023-02-24T09:20:00.434Z,6.1
2023-02-24T09:21:06.696Z,6.1
2023-02-24T09:22:12.964Z,6.2
2023-02-24T09:23:19.234Z,6.2
2023-02-24T09:24:25.505Z,6.3
2023-02-24T09:25:30.868Z,6.3
2023-02-24T09:26:36.095Z,6.4
2023-02-24T09:27:41.397Z,6.5
2023-02-24T09:28:46.696Z,6.6
2023-02-24T09:29:52.979Z,6.7
2023-02-24T09:30:59.437Z,6.7
2023-02-24T09:32:05.583Z,6.7
2023-02-24T09:33:11.766Z,6.7
2023-02-24T09:34:18.164Z,6.7
2023-02-24T09:35:24.307Z,6.8
2023-02-24T09:36:30.639Z,6.8
2023-02-24T09:37:36.957Z,6.8
2023-02-24T09:38:43.126Z,6.8
2023-02-24T09:39:49.410Z,6.8
2023-02-24T09:40:55.710Z,6.8
2023-02-24T09:42:02.063Z,6.8
2023-02-24T09:43:07.325Z,6.7
2023-02-24T09:44:13.640Z,6.7
2023-02-24T09:45:19.946Z,6.7
2023-02-24T09:46:26.144Z,6.7
2023-02-24T09:47:32.507Z,6.8
2023-02-24T09:48:38.764Z,6.8
2023-02-24T09:49:44.985Z,6.8
2023-02-24T09:50:50.229Z,6.8
2023-02-24T09:51:55.638Z,6.8
2023-02-24T09:53:01.843Z,6.8
2023-02-24T09:54:08.097Z,6.9
2023-02-24T09:55:14.396Z,6.9
2023-02-24T09:56:20.532Z,6.9
2023-02-24T09:57:26.807Z,7
2023-02-24T09:58:33.149Z,7
2023-02-24T09:59:39.381Z,7.1
2023-02-24T10:00:45.625Z,7.1
2023-02-24T10:01:51.898Z,7.1
2023-02-24T10:02:57.275Z,7.1
2023-02-24T10:04:02.486Z,7.1
2023-02-24T10:05:08.792Z,7.1
2023-02-24T10:06:15.059Z,7
2023-02-24T10:07:21.299Z,7
2023-02-24T10:08:27.585Z,7.1
2023-02-24T10:09:33.855Z,7.2
2023-02-24T10:10:40.231Z,7.3
2023-02-24T10:11:46.481Z,7.4
2023-02-24T10:12:52.726Z,7.4
2023-02-24T10:13:58.928Z,7.4
2023-02-24T10:15:05.201Z,7.4
2023-02-24T10:16:11.581Z,7.4
2023-02-24T10:17:17.786Z,7.4
2023-02-24T10:18:23.069Z,7.4
2023-02-24T10:19:29.320Z,7.3
2023-02-24T10:20:35.569Z,7.3
2023-02-24T10:21:41.904Z,7.3
2023-02-24T10:22:48.121Z,7.3
2023-02-24T10:23:54.389Z,7.4
2023-02-24T10:25:00.727Z,7.4
2023-02-24T10:26:05.954Z,7.5
2023-02-24T10:27:12.238Z,7.5
2023-02-24T10:28:17.536Z,7.4
2023-02-24T10:29:23.892Z,7.4
2023-02-24T10:30:30.078Z,7.4
2023-02-24T10:31:35.361Z,7.4
2023-02-24T10:32:40.648Z,7.4
2023-02-24T10:33:46.935Z,7.4
2023-02-24T10:34:53.200Z,7.4
2023-02-24T10:35:59.498Z,7.4
2023-02-24T10:37:05.738Z,7.5
2023-02-24T10:38:12.043Z,7.5
2023-02-24T10:39:18.299Z,7.5
2023-02-24T10:40:24.565Z,7.6
2023-02-24T10:41:30.941Z,7.7
2023-02-24T10:42:37.097Z,7.7
2023-02-24T10:43:43.369Z,7.8
2023-02-24T10:44:49.647Z,7.7
2023-02-24T10:45:55.935Z,7.7
2023-02-24T10:47:01.300Z,7.7
2023-02-24T10:48:07.481Z,7.8
2023-02-24T10:49:13.781Z,7.9
2023-02-24T10:50:20.021Z,8
2023-02-24T10:51:26.379Z,8
2023-02-24T10:52:32.564Z,8.1
2023-02-24T10:53:38.833Z,8.1
2023-02-24T10:54:45.110Z,8.2
2023-02-24T10:55:51.371Z,8.2
2023-02-24T10:56:57.757Z,8.3
2023-02-24T10:58:03.960Z,8.3
2023-02-24T10:59:10.252Z,8.4
2023-02-24T11:00:16.505Z,8.4
2023-02-24T11:01:21.762Z,8.3
2023-02-24T11:02:28.029Z,8.4
2023-02-24T11:03:34.455Z,8.5
2023-02-24T11:04:40.656Z,8.6
2023-02-24T11:05:46.875Z,8.6
2023-02-24T11:06:53.187Z,8.6
2023-02-24T11:07:59.536Z,8.7
2023-02-24T11:09:05.781Z,8.6
2023-02-24T11:10:11.971Z,8.6
2023-02-24T11:11:18.255Z,8.6
2023-02-24T11:12:24.474Z,8.6
2023-02-24T11:13:30.742Z,8.7
2023-02-24T11:14:37.010Z,8.7
2023-02-24T11:15:42.298Z,8.8
2023-02-24T11:16:48.570Z,8.8
2023-02-24T11:17:54.849Z,8.8
2023-02-24T11:19:01.207Z,8.9
2023-02-24T11:20:07.384Z,8.9
2023-02-24T11:21:13.762Z,8.9
2023-02-24T11:22:19.925Z,8.9
2023-02-24T11:23:26.200Z,8.9
2023-02-24T11:24:32.482Z,8.9
2023-02-24T11:25:38.797Z,8.9
2023-02-24T11:26:45.011Z,8.9
2023-02-24T11:27:51.313Z,8.9
2023-02-24T11:28:57.559Z,8.9
2023-02-24T11:30:02.842Z,8.9
2023-02-24T11:31:09.133Z,9
2023-02-24T11:32:15.555Z,9
2023-02-24T11:33:21.713Z,9
2023-02-24T11:34:27.950Z,9.1
2023-02-24T11:35:34.219Z,9.1
2023-02-24T11:36:40.485Z,9.2
2023-02-24T11:37:46.801Z,9.2
2023-02-24T11:38:53.028Z,9.3
2023-02-24T11:39:59.317Z,9.3
2023-02-24T11:41:05.578Z,9.4
2023-02-24T11:42:11.896Z,9.4
2023-02-24T11:43:18.144Z,9.4
2023-02-24T11:44:23.410Z,9.4
2023-02-24T11:45:29.701Z,9.5
2023-02-24T11:46:34.974Z,9.5
2023-02-24T11:47:40.256Z,9.5
2023-02-24T11:48:46.529Z,9.6
2023-02-24T11:49:52.800Z,9.6
2023-02-24T11:50:59.087Z,9.7
2023-02-24T11:52:05.347Z,9.8
2023-02-24T11:53:11.634Z,9.9
2023-02-24T11:54:17.889Z,10
2023-02-24T11:55:24.267Z,10
2023-02-24T11:56:30.583Z,9.9
2023-02-24T11:57:36.857Z,9.9
2023-02-24T11:58:42.987Z,9.9
2023-02-24T11:59:49.282Z,10
2023-02-24T12:00:55.560Z,10
2023-02-24T12:02:00.821Z,10
2023-02-24T12:03:07.090Z,10
2023-02-24T12:04:13.401Z,10
2023-02-24T12:05:19.702Z,10
2023-02-24T12:06:25.895Z,10
2023-02-24T12:07:32.219Z,10
2023-02-24T12:08:38.499Z,10
2023-02-24T12:09:43.745Z,10.1
2023-02-24T12:10:49.072Z,10.2
2023-02-24T12:11:54.402Z,10.3
2023-02-24T12:13:00.615Z,10.4
2023-02-24T12:14:05.932Z,10.5
2023-02-24T12:15:12.151Z,10.6
2023-02-24T12:16:18.435Z,10.6
2023-02-24T12:17:24.783Z,10.7
2023-02-24T12:19:37.276Z,10.8
2023-02-24T12:20:43.544Z,10.8
2023-02-24T12:21:49.795Z,10.9
2023-02-24T12:22:56.074Z,11
2023-02-24T12:24:02.350Z,10.9
2023-02-24T12:25:08.611Z,11
2023-02-24T12:27:21.261Z,11.2
2023-02-24T12:28:26.478Z,11.2
2023-02-24T12:29:31.744Z,11.2
2023-02-24T12:30:38.016Z,11.2
2023-02-24T12:31:44.281Z,11.3
2023-02-24T12:32:50.554Z,11.3
2023-02-24T12:33:56.827Z,11.4
2023-02-24T12:35:03.102Z,11.5
2023-02-24T12:36:09.412Z,11.6
2023-02-24T12:37:15.645Z,11.7
2023-02-24T12:38:20.927Z,11.8
2023-02-24T12:39:27.210Z,11.8
2023-02-24T12:40:32.517Z,11.8
2023-02-24T12:41:37.805Z,11.7
2023-02-24T12:42:44.053Z,11.8
2023-02-24T12:43:50.335Z,11.9
2023-02-24T12:44:56.614Z,11.9
2023-02-24T12:46:02.880Z,11.9
2023-02-24T12:47:09.163Z,11.9
2023-02-24T12:48:15.484Z,11.8
2023-02-24T12:49:21.786Z,11.8
2023-02-24T12:50:27.990Z,11.8
2023-02-24T12:51:34.241Z,11.7
2023-02-24T12:52:40.535Z,11.7
2023-02-24T12:53:46.831Z,11.7
2023-02-24T12:54:53.048Z,11.6
2023-02-24T12:55:58.339Z,11.6
2023-02-24T12:57:04.610Z,11.6
2023-02-24T12:58:10.883Z,11.6
2023-02-24T12:59:17.172Z,11.5
2023-02-24T13:00:23.426Z,11.4
2023-02-24T13:01:29.692Z,11.4
2023-02-24T13:02:35.976Z,11.4
2023-02-24T13:03:42.247Z,11.3
2023-02-24T13:04:47.575Z,11.3
2023-02-24T13:05:52.827Z,11.3
2023-02-24T13:06:58.139Z,11.3
2023-02-24T13:08:03.412Z,11.3
2023-02-24T13:09:09.682Z,11.2
2023-02-24T13:10:15.958Z,11.2
2023-02-24T13:11:22.248Z,11.1
2023-02-24T13:12:28.618Z,11.2
2023-02-24T13:13:34.783Z,11.2
2023-02-24T13:14:41.051Z,11.2
2023-02-24T13:15:47.323Z,11.2
2023-02-24T13:16:53.596Z,11.2
2023-02-24T13:17:59.903Z,11.2
2023-02-24T13:19:06.129Z,11.3
2023-02-24T13:20:12.474Z,11.3
2023-02-24T13:21:18.675Z,11.2
2023-02-24T13:22:23.958Z,11.2
2023-02-24T13:23:30.244Z,11.2
2023-02-24T13:24:36.546Z,11.2
2023-02-24T13:25:42.781Z,11.3
2023-02-24T13:26:49.068Z,11.3
2023-02-24T13:27:55.314Z,11.2
2023-02-24T13:29:01.587Z,11.2
2023-02-24T13:30:07.908Z,11.2
2023-02-24T13:31:13.171Z,11.2
2023-02-24T13:32:18.444Z,11.2
2023-02-24T13:33:24.721Z,11.2
2023-02-24T13:34:30.998Z,11.2
2023-02-24T13:35:36.345Z,11.2
2023-02-24T13:36:42.573Z,11.2
2023-02-24T13:37:47.865Z,11.2
2023-02-24T13:38:54.144Z,11
2023-02-24T13:40:00.413Z,11
2023-02-24T13:41:06.737Z,11
2023-02-24T13:42:12.960Z,11
2023-02-24T13:43:19.220Z,11
2023-02-24T13:44:25.505Z,11.1
2023-02-24T13:45:31.853Z,11
2023-02-24T13:46:38.021Z,11.1
2023-02-24T13:47:44.307Z,11.1
2023-02-24T13:48:50.581Z,11.1
2023-02-24T13:49:56.848Z,11.1
2023-02-24T13:51:03.133Z,11.2
2023-02-24T13:52:08.414Z,11.2
2023-02-24T13:53:14.672Z,11.3
2023-02-24T13:54:20.954Z,11.3
2023-02-24T13:55:27.289Z,11.3
2023-02-24T13:56:33.509Z,11.3
2023-02-24T13:57:39.820Z,11.3
2023-02-24T13:58:46.129Z,11.3
2023-02-24T13:59:52.340Z,11.3
2023-02-24T14:00:58.577Z,11.3
2023-02-24T14:02:04.847Z,11.3
2023-02-24T14:03:11.124Z,11.3
2023-02-24T14:04:17.396Z,11.3
2023-02-24T14:05:23.679Z,11.3
2023-02-24T14:06:28.952Z,11.2
2023-02-24T14:07:35.244Z,11.2
2023-02-24T14:08:41.508Z,11.3
2023-02-24T14:09:47.824Z,11.3
2023-02-24T14:10:54.049Z,11.4
2023-02-24T14:12:00.325Z,11.4
2023-02-24T14:13:06.599Z,11.3
2023-02-24T14:14:12.865Z,11.3
2023-02-24T14:15:19.167Z,11.3
2023-02-24T14:16:24.430Z,11.2
2023-02-24T14:17:30.739Z,11.3
2023-02-24T14:18:36.034Z,11.2
2023-02-24T14:19:41.295Z,11.2
2023-02-24T14:20:46.597Z,11.2
2023-02-24T14:21:52.907Z,11.2
2023-02-24T14:22:59.117Z,11.2
2023-02-24T14:24:05.446Z,11.1
2023-02-24T14:25:11.681Z,11.1
2023-02-24T14:26:17.936Z,11.1
2023-02-24T14:27:24.210Z,11.1
2023-02-24T14:28:30.472Z,11
2023-02-24T14:29:36.757Z,11
2023-02-24T14:30:43.022Z,11
2023-02-24T14:31:49.293Z,10.9
2023-02-24T14:32:55.569Z,10.9
2023-02-24T14:34:01.844Z,10.9
2023-02-24T14:35:07.124Z,10.9
2023-02-24T14:36:13.387Z,10.9
2023-02-24T14:37:19.671Z,10.9
2023-02-24T14:38:25.938Z,10.9
2023-02-24T14:39:32.321Z,11
2023-02-24T14:40:38.588Z,10.9
2023-02-24T14:41:44.754Z,10.9
2023-02-24T14:42:51.026Z,10.9
2023-02-24T14:43:56.348Z,10.9
2023-02-24T14:45:01.651Z,10.9
2023-02-24T14:46:07.881Z,10.9
2023-02-24T14:47:14.157Z,10.9
2023-02-24T14:48:20.422Z,10.9
2023-02-24T14:49:26.700Z,11
2023-02-24T14:50:32.027Z,10.9
2023-02-24T14:51:37.295Z,10.9
2023-02-24T14:52:43.556Z,10.9
2023-02-24T14:53:49.826Z,10.9
2023-02-24T14:54:56.102Z,10.9
2023-02-24T14:56:02.396Z,10.8
2023-02-24T14:57:08.647Z,10.9
2023-02-24T14:58:14.932Z,10.8
2023-02-24T14:59:21.205Z,10.8
2023-02-24T15:00:27.460Z,10.9
2023-02-24T15:01:33.732Z,10.9
2023-02-24T15:02:40.050Z,10.9
2023-02-24T15:03:46.289Z,10.9
2023-02-24T15:04:52.556Z,10.9
2023-02-24T15:05:57.837Z,10.9
2023-02-24T15:07:04.125Z,10.9
2023-02-24T15:08:10.419Z,10.9
2023-02-24T15:09:16.654Z,10.9
2023-02-24T15:10:22.954Z,10.9
2023-02-24T15:11:29.194Z,10.9